createdAt,value
2023-03-30T00:00:21.137Z,98208.19
2023-03-30T00:02:49.531Z,98204.69
2023-03-30T00:05:18.316Z,98213.06
2023-03-30T00:07:45.940Z,98198.72
2023-03-30T00:10:14.785Z,98201.97
2023-03-30T00:12:43.659Z,98198.75
2023-03-30T00:15:12.540Z,98197.13
2023-03-30T00:17:39.518Z,98198.50
2023-03-30T00:20:11.773Z,98202.00
2023-03-30T00:22:39.329Z,98195.50
2023-03-30T00:25:08.804Z,98198.22
2023-03-30T00:27:36.324Z,98202.25
2023-03-30T00:30:04.698Z,98208.47
2023-03-30T00:32:31.550Z,98214.13
2023-03-30T00:34:58.338Z,98211.19
2023-03-30T00:37:25.950Z,98216.59
2023-03-30T00:39:53.489Z,98217.16
2023-03-30T00:42:21.859Z,98216.63
2023-03-30T00:45:08.214Z,98206.09
2023-03-30T00:47:36.361Z,98210.72
2023-03-30T00:50:03.807Z,98208.03
2023-03-30T00:52:33.312Z,98215.84
2023-03-30T00:55:00.121Z,98211.00
2023-03-30T00:57:27.286Z,98215.06
2023-03-30T00:59:55.118Z,98212.59
2023-03-30T01:02:22.136Z,98215.84
2023-03-30T01:04:51.037Z,98213.16
2023-03-30T01:07:18.795Z,98220.69
2023-03-30T01:09:45.897Z,98217.75
2023-03-30T01:12:12.733Z,98215.59
2023-03-30T01:14:40.200Z,98214.78
2023-03-30T01:17:22.158Z,98215.31
2023-03-30T01:19:51.954Z,98209.91
2023-03-30T01:22:18.903Z,98215.56
2023-03-30T01:25:04.921Z,98219.06
2023-03-30T01:27:51.947Z,98222.59
2023-03-30T01:30:38.426Z,98222.84
2023-03-30T01:33:25.578Z,98219.63
2023-03-30T01:36:11.144Z,98225.84
2023-03-30T01:38:56.790Z,98228.00
2023-03-30T01:41:30.853Z,98240.66
2023-03-30T01:44:05.472Z,98236.34
2023-03-30T01:46:40.477Z,98246.59
2023-03-30T01:49:15.433Z,98240.94
2023-03-30T01:51:57.420Z,98250.38
2023-03-30T01:54:28.476Z,98254.16
2023-03-30T01:56:59.650Z,98253.63
2023-03-30T01:59:31.666Z,98253.88
2023-03-30T02:02:04.310Z,98254.44
2023-03-30T02:04:33.827Z,98259.81
2023-03-30T02:07:08.043Z,98261.72
2023-03-30T02:09:37.367Z,98267.34
2023-03-30T02:12:04.940Z,98265.19
2023-03-30T02:14:37.163Z,98268.94
2023-03-30T02:17:27.406Z,98268.69
2023-03-30T02:19:58.232Z,98263.81
2023-03-30T02:22:26.869Z,98257.34
2023-03-30T02:24:55.247Z,98259.25
2023-03-30T02:27:22.979Z,98268.41
2023-03-30T02:29:49.882Z,98269.97
2023-03-30T02:32:28.926Z,98283.44
2023-03-30T02:35:05.070Z,98290.19
2023-03-30T02:37:55.511Z,98295.34
2023-03-30T02:40:41.268Z,98291.03
2023-03-30T02:43:20.104Z,98289.91
2023-03-30T02:45:56.589Z,98289.34
2023-03-30T02:48:27.402Z,98296.06
2023-03-30T02:51:12.707Z,98296.03
2023-03-30T02:54:09.701Z,98292.75
2023-03-30T02:57:03.299Z,98287.91
2023-03-30T02:59:51.734Z,98290.59
2023-03-30T03:02:24.743Z,98292.22
2023-03-30T03:05:04.079Z,98291.16
2023-03-30T03:07:54.898Z,98289.25
2023-03-30T03:10:22.071Z,98300.28
2023-03-30T03:12:49.530Z,98290.34
2023-03-30T03:15:16.903Z,98291.97
2023-03-30T03:18:01.095Z,98296.00
2023-03-30T03:20:30.783Z,98284.97
2023-03-30T03:22:58.978Z,98300.06
2023-03-30T03:25:26.039Z,98300.59
2023-03-30T03:27:59.576Z,98293.09
2023-03-30T03:30:30.099Z,98303.06
2023-03-30T03:33:04.687Z,98292.28
2023-03-30T03:35:32.875Z,98298.22
2023-03-30T03:38:03.393Z,98300.88
2023-03-30T03:40:30.403Z,98298.41
2023-03-30T03:42:57.676Z,98301.63
2023-03-30T03:45:24.548Z,98312.09
2023-03-30T03:47:54.953Z,98306.63
2023-03-30T03:50:42.657Z,98322.75
2023-03-30T03:53:10.255Z,98314.91
2023-03-30T03:55:37.129Z,98321.09
2023-03-30T03:58:05.342Z,98332.91
2023-03-30T04:00:33.937Z,98327.78
2023-03-30T04:03:01.271Z,98339.31
2023-03-30T04:05:28.443Z,98337.66
2023-03-30T04:07:56.910Z,98342.75
2023-03-30T04:10:24.447Z,98342.19
2023-03-30T04:13:26.758Z,98338.16
2023-03-30T04:16:19.149Z,98334.69
2023-03-30T04:18:45.939Z,98338.47
2023-03-30T04:21:33.109Z,98345.75
2023-03-30T04:24:14.907Z,98344.19
2023-03-30T04:27:04.810Z,98344.78
2023-03-30T04:29:40.905Z,98343.75
2023-03-30T04:32:26.572Z,98350.50
2023-03-30T04:35:03.911Z,98350.31
2023-03-30T04:38:06.336Z,98352.25
2023-03-30T04:40:54.111Z,98341.50
2023-03-30T04:43:39.698Z,98349.66
2023-03-30T04:46:42.180Z,98342.41
2023-03-30T04:49:18.382Z,98348.88
2023-03-30T04:52:03.806Z,98342.66
2023-03-30T04:54:49.322Z,98342.66
2023-03-30T04:57:45.698Z,98342.66
2023-03-30T05:00:32.737Z,98340.50
2023-03-30T05:03:22.494Z,98345.84
2023-03-30T05:06:16.432Z,98334.47
2023-03-30T05:09:09.806Z,98331.75
2023-03-30T05:11:56.914Z,98338.16
2023-03-30T05:14:43.070Z,98340.56
2023-03-30T05:17:40.418Z,98336.25
2023-03-30T05:20:25.768Z,98340.81
2023-03-30T05:23:24.589Z,98338.63
2023-03-30T05:25:51.783Z,98350.22
2023-03-30T05:28:43.235Z,98348.88
2023-03-30T05:31:22.236Z,98344.09
2023-03-30T05:34:09.450Z,98353.56
2023-03-30T05:37:05.488Z,98362.72
2023-03-30T05:39:35.285Z,98363.19
2023-03-30T05:42:15.493Z,98363.97
2023-03-30T05:44:54.045Z,98367.19
2023-03-30T05:47:41.233Z,98368.28
2023-03-30T05:50:34.241Z,98377.81
2023-03-30T05:53:08.948Z,98373.53
2023-03-30T05:56:11.284Z,98380.84
2023-03-30T05:59:01.115Z,98379.31
2023-03-30T06:01:51.253Z,98380.69
2023-03-30T06:04:18.522Z,98381.78
2023-03-30T06:06:45.954Z,98377.75
2023-03-30T06:09:12.991Z,98386.16
2023-03-30T06:11:39.801Z,98377.28
2023-03-30T06:14:17.451Z,98388.09
2023-03-30T06:16:54.911Z,98387.56
2023-03-30T06:19:21.957Z,98387.34
2023-03-30T06:21:49.282Z,98391.69
2023-03-30T06:24:28.529Z,98398.44
2023-03-30T06:26:56.170Z,98393.88
2023-03-30T06:29:23.302Z,98400.88
2023-03-30T06:31:51.483Z,98392.25
2023-03-30T06:34:50.944Z,98394.94
2023-03-30T06:37:20.564Z,98392.50
2023-03-30T06:39:49.136Z,98392.25
2023-03-30T06:42:16.019Z,98394.16
2023-03-30T06:45:03.612Z,98385.53
2023-03-30T06:47:31.677Z,98390.69
2023-03-30T06:50:00.805Z,98387.16
2023-03-30T06:52:47.168Z,98384.75
2023-03-30T06:55:14.557Z,98391.50
2023-03-30T06:57:41.637Z,98385.03
2023-03-30T07:00:13.623Z,98386.91
2023-03-30T07:02:44.228Z,98386.34
2023-03-30T07:05:37.917Z,98381.22
2023-03-30T07:08:25.065Z,98372.91
2023-03-30T07:10:55.699Z,98378.56
2023-03-30T07:13:25.809Z,98388.81
2023-03-30T07:15:52.837Z,98381.00
2023-03-30T07:18:19.612Z,98383.69
2023-03-30T07:20:47.015Z,98378.56
2023-03-30T07:23:16.786Z,98383.41
2023-03-30T07:25:46.482Z,98392.03
2023-03-30T07:28:17.534Z,98388.84
2023-03-30T07:30:48.381Z,98394.50
2023-03-30T07:33:16.348Z,98387.19
2023-03-30T07:35:45.784Z,98389.06
2023-03-30T07:38:15.080Z,98387.69
2023-03-30T07:40:48.760Z,98387.97
2023-03-30T07:43:16.158Z,98388.78
2023-03-30T07:45:44.284Z,98396.88
2023-03-30T07:48:17.232Z,98388.50
2023-03-30T07:50:44.468Z,98387.13
2023-03-30T07:53:11.327Z,98386.81
2023-03-30T07:55:39.309Z,98387.88
2023-03-30T07:58:14.328Z,98395.44
2023-03-30T08:00:41.652Z,98398.97
2023-03-30T08:03:40.967Z,98398.72
2023-03-30T08:06:07.850Z,98399.84
2023-03-30T08:08:39.101Z,98400.66
2023-03-30T08:11:06.962Z,98405.00
2023-03-30T08:13:44.831Z,98402.56
2023-03-30T08:16:17.708Z,98401.47
2023-03-30T08:18:51.471Z,98397.44
2023-03-30T08:21:18.361Z,98403.66
2023-03-30T08:23:46.964Z,98415.56
2023-03-30T08:26:13.780Z,98425.00
2023-03-30T08:28:40.646Z,98420.38
2023-03-30T08:31:08.518Z,98411.50
2023-03-30T08:33:35.684Z,98419.00
2023-03-30T08:36:02.993Z,98427.31
2023-03-30T08:38:29.890Z,98430.78
2023-03-30T08:40:56.958Z,98432.06
2023-03-30T08:43:39.001Z,98431.16
2023-03-30T08:46:08.049Z,98432.41
2023-03-30T08:48:59.798Z,98434.78
2023-03-30T08:54:53.705Z,98439.78
2023-03-30T08:57:42.532Z,98447.72
2023-03-30T09:00:18.026Z,98442.25
2023-03-30T09:02:48.828Z,98436.84
2023-03-30T09:05:24.633Z,98428.78
2023-03-30T09:08:18.008Z,98429.88
2023-03-30T09:11:02.595Z,98428.25
2023-03-30T09:13:32.820Z,98442.22
2023-03-30T09:15:59.748Z,98433.84
2023-03-30T09:18:35.038Z,98430.31
2023-03-30T09:21:03.318Z,98439.09
2023-03-30T09:23:31.246Z,98434.50
2023-03-30T09:26:23.309Z,98441.75
2023-03-30T09:28:59.285Z,98442.81
2023-03-30T09:31:45.097Z,98454.09
2023-03-30T09:34:36.100Z,98460.75
2023-03-30T09:37:07.167Z,98464.47
2023-03-30T09:39:39.128Z,98471.09
2023-03-30T09:42:05.975Z,98462.97
2023-03-30T09:44:52.756Z,98476.47
2023-03-30T09:47:23.374Z,98484.03
2023-03-30T09:50:10.712Z,98477.63
2023-03-30T09:52:55.753Z,98466.66
2023-03-30T09:55:22.824Z,98473.53
2023-03-30T09:57:51.175Z,98462.25
2023-03-30T10:00:27.716Z,98462.50
2023-03-30T10:02:57.483Z,98467.84
2023-03-30T10:05:24.840Z,98462.38
2023-03-30T10:07:59.463Z,98485.75
2023-03-30T10:10:26.632Z,98483.22
2023-03-30T10:13:01.924Z,98493.06
2023-03-30T10:15:31.951Z,98519.00
2023-03-30T10:18:06.372Z,98501.34
2023-03-30T10:20:37.445Z,98498.78
2023-03-30T10:23:05.958Z,98489.34
2023-03-30T10:25:33.684Z,98492.03
2023-03-30T10:28:03.134Z,98486.91
2023-03-30T10:30:30.269Z,98492.84
2023-03-30T10:32:58.768Z,98488.91
2023-03-30T10:35:27.834Z,98492.84
2023-03-30T10:37:56.569Z,98497.03
2023-03-30T10:40:28.012Z,98496.53
2023-03-30T10:42:56.935Z,98495.97
2023-03-30T10:45:46.069Z,98501.34
2023-03-30T10:48:25.672Z,98519.00
2023-03-30T10:51:12.318Z,98509.97
2023-03-30T10:53:53.666Z,98528.41
2023-03-30T10:56:27.819Z,98526.16
2023-03-30T10:59:13.497Z,98518.25
2023-03-30T11:02:01.396Z,98515.56
2023-03-30T11:04:28.209Z,98499.44
2023-03-30T11:06:57.677Z,98496.75
2023-03-30T11:09:29.339Z,98514.50
2023-03-30T11:11:58.600Z,98519.41
2023-03-30T11:14:28.255Z,98514.91
2023-03-30T11:17:01.964Z,98509.34
2023-03-30T11:19:29.210Z,98504.03
2023-03-30T11:22:15.113Z,98491.41
2023-03-30T11:24:44.044Z,98484.50
2023-03-30T11:27:29.528Z,98487.34
2023-03-30T11:30:02.215Z,98483.13
2023-03-30T11:32:36.174Z,98493.03
2023-03-30T11:35:21.757Z,98494.47
2023-03-30T11:37:53.568Z,98500.22
2023-03-30T11:40:25.549Z,98490.47
2023-03-30T11:42:54.087Z,98493.09
2023-03-30T11:45:30.313Z,98502.78
2023-03-30T11:48:17.378Z,98512.97
2023-03-30T11:51:03.817Z,98508.31
2023-03-30T11:53:36.776Z,98496.63
2023-03-30T11:56:05.920Z,98497.06
2023-03-30T11:58:43.710Z,98499.59
2023-03-30T12:01:19.722Z,98497.84
2023-03-30T12:03:49.216Z,98494.28
2023-03-30T12:06:21.980Z,98495.00
2023-03-30T12:08:54.872Z,98498.66
2023-03-30T12:11:41.996Z,98499.31
2023-03-30T12:14:27.399Z,98499.91
2023-03-30T12:16:58.205Z,98509.16
2023-03-30T12:19:29.546Z,98506.13
2023-03-30T12:22:02.759Z,98501.25
2023-03-30T12:24:33.326Z,98502.81
2023-03-30T12:27:05.772Z,98497.69
2023-03-30T12:32:28.791Z,98504.28
2023-03-30T12:34:57.323Z,98521.03
2023-03-30T12:37:30.548Z,98514.69
2023-03-30T12:40:09.148Z,98514.31
2023-03-30T12:42:46.518Z,98521.66
2023-03-30T12:45:29.565Z,98515.81
2023-03-30T12:48:16.062Z,98506.94
2023-03-30T12:50:42.948Z,98498.34
2023-03-30T12:53:15.649Z,98511.16
2023-03-30T12:56:01.463Z,98510.56
2023-03-30T12:58:46.832Z,98505.13
2023-03-30T13:01:16.665Z,98509.97
2023-03-30T13:03:59.580Z,98520.25
2023-03-30T13:06:30.632Z,98501.66
2023-03-30T13:09:04.617Z,98505.63
2023-03-30T13:11:42.914Z,98509.03
2023-03-30T13:14:36.638Z,98499.59
2023-03-30T13:17:03.603Z,98511.38
2023-03-30T13:19:33.569Z,98499.16
2023-03-30T13:22:04.593Z,98507.69
2023-03-30T13:24:31.487Z,98511.88
2023-03-30T13:27:18.687Z,98517.59
2023-03-30T13:30:00.849Z,98524.88
2023-03-30T13:32:30.753Z,98517.28
2023-03-30T13:35:07.476Z,98513.91
2023-03-30T13:37:53.396Z,98527.16
2023-03-30T13:40:31.285Z,98526.22
2023-03-30T13:43:11.823Z,98525.50
2023-03-30T13:45:49.225Z,98526.06
2023-03-30T13:48:25.187Z,98511.28
2023-03-30T13:50:55.354Z,98530.28
2023-03-30T13:53:24.289Z,98528.06
2023-03-30T13:55:53.067Z,98513.44
2023-03-30T13:58:29.109Z,98507.84
2023-03-30T14:01:05.630Z,98529.06
2023-03-30T14:03:32.505Z,98536.75
2023-03-30T14:06:04.437Z,98532.34
2023-03-30T14:08:34.680Z,98532.47
2023-03-30T14:11:04.061Z,98521.38
2023-03-30T14:13:31.361Z,98512.44
2023-03-30T14:15:58.619Z,98519.88
2023-03-30T14:18:25.621Z,98519.31
2023-03-30T14:20:56.322Z,98521.41
2023-03-30T14:23:26.179Z,98512.22
2023-03-30T14:26:04.076Z,98520.47
2023-03-30T14:28:34.731Z,98516.16
2023-03-30T14:31:05.152Z,98505.69
2023-03-30T14:33:33.133Z,98519.78
2023-03-30T14:36:03.809Z,98515.47
2023-03-30T14:38:40.425Z,98522.69
2023-03-30T14:41:20.308Z,98523.94
2023-03-30T14:43:52.609Z,98520.22
2023-03-30T14:46:19.854Z,98526.03
2023-03-30T14:48:50.457Z,98525.69
2023-03-30T14:51:23.642Z,98523.25
2023-03-30T14:53:53.985Z,98519.97
2023-03-30T14:56:22.380Z,98525.09
2023-03-30T14:58:51.502Z,98524.88
2023-03-30T15:01:31.585Z,98518.47
2023-03-30T15:04:05.589Z,98526.50
2023-03-30T15:06:32.657Z,98529.88
2023-03-30T15:09:01.012Z,98545.47
2023-03-30T15:11:29.985Z,98539.19
2023-03-30T15:14:03.189Z,98544.84
2023-03-30T15:16:33.022Z,98565.28
2023-03-30T15:19:03.603Z,98545.16
2023-03-30T15:21:32.696Z,98540.28
2023-03-30T15:24:00.550Z,98549.00
2023-03-30T15:26:31.165Z,98551.66
2023-03-30T15:28:58.735Z,98553.88
2023-03-30T15:31:26.813Z,98556.69
2023-03-30T15:33:54.959Z,98559.94
2023-03-30T15:36:23.375Z,98562.38
2023-03-30T15:38:54.592Z,98567.97
2023-03-30T15:41:23.220Z,98567.97
2023-03-30T15:44:09.092Z,98570.19
2023-03-30T15:46:38.638Z,98564.47
2023-03-30T15:49:05.955Z,98564.94
2023-03-30T15:51:39.034Z,98558.66
2023-03-30T15:54:13.970Z,98560.16
2023-03-30T15:56:46.913Z,98556.88
2023-03-30T15:59:18.768Z,98560.44
2023-03-30T16:01:55.558Z,98559.50
2023-03-30T16:04:23.746Z,98555.44
2023-03-30T16:06:53.734Z,98558.78
2023-03-30T16:09:27.448Z,98565.84
2023-03-30T16:11:54.373Z,98563.63
2023-03-30T16:14:21.369Z,98563.47
2023-03-30T16:16:48.812Z,98586.13
2023-03-30T16:19:19.927Z,98579.16
2023-03-30T16:21:46.870Z,98568.44
2023-03-30T16:24:13.843Z,98577.28
2023-03-30T16:26:43.485Z,98574.38
2023-03-30T16:29:21.621Z,98567.41
2023-03-30T16:31:52.862Z,98570.91
2023-03-30T16:34:20.492Z,98568.69
2023-03-30T16:36:48.272Z,98580.63
2023-03-30T16:39:25.910Z,98585.16
2023-03-30T16:41:56.371Z,98583.31
2023-03-30T16:44:24.459Z,98597.03
2023-03-30T16:46:51.754Z,98592.28
2023-03-30T16:49:21.765Z,98589.84
2023-03-30T16:51:49.848Z,98591.91
2023-03-30T16:54:30.342Z,98594.00
2023-03-30T16:56:59.910Z,98604.69
2023-03-30T16:59:38.740Z,98609.81
2023-03-30T17:02:16.353Z,98589.47
2023-03-30T17:04:45.527Z,98594.81
2023-03-30T17:07:12.585Z,98596.66
2023-03-30T17:09:42.311Z,98583.75
2023-03-30T17:12:09.316Z,98586.88
2023-03-30T17:14:36.452Z,98588.97
2023-03-30T17:17:03.378Z,98583.63
2023-03-30T17:19:32.035Z,98587.56
2023-03-30T17:21:58.915Z,98581.84
2023-03-30T17:24:25.835Z,98579.63
2023-03-30T17:27:00.610Z,98578.81
2023-03-30T17:29:27.381Z,98583.13
2023-03-30T17:31:54.159Z,98583.13
2023-03-30T17:34:21.026Z,98577.78
2023-03-30T17:36:47.768Z,98571.38
2023-03-30T17:39:17.556Z,98575.69
2023-03-30T17:41:44.620Z,98570.78
2023-03-30T17:44:11.561Z,98579.41
2023-03-30T17:46:39.267Z,98574.28
2023-03-30T17:49:14.470Z,98577.41
2023-03-30T17:51:41.438Z,98575.97
2023-03-30T17:54:08.717Z,98579.09
2023-03-30T17:56:35.636Z,98577.91
2023-03-30T17:59:02.498Z,98570.94
2023-03-30T18:01:29.778Z,98570.56
2023-03-30T18:03:56.663Z,98580.44
2023-03-30T18:06:23.546Z,98578.81
2023-03-30T18:08:50.459Z,98575.91
2023-03-30T18:11:17.184Z,98573.00
2023-03-30T18:13:44.101Z,98575.69
2023-03-30T18:16:14.584Z,98576.50
2023-03-30T18:18:41.574Z,98577.31
2023-03-30T18:21:10.099Z,98564.78
2023-03-30T18:23:38.402Z,98570.25
2023-03-30T18:26:12.243Z,98568.78
2023-03-30T18:28:42.553Z,98569.97
2023-03-30T18:31:09.498Z,98570.94
2023-03-30T18:33:36.500Z,98574.56
2023-03-30T18:36:07.872Z,98570.41
2023-03-30T18:38:35.019Z,98571.81
2023-03-30T18:41:02.007Z,98563.19
2023-03-30T18:43:29.118Z,98561.34
2023-03-30T18:46:02.441Z,98561.56
2023-03-30T18:48:29.790Z,98560.97
2023-03-30T18:50:58.865Z,98551.91
2023-03-30T18:53:29.010Z,98552.75
2023-03-30T18:56:01.725Z,98550.53
2023-03-30T18:58:29.842Z,98561.88
2023-03-30T19:00:57.084Z,98552.69
2023-03-30T19:03:24.922Z,98544.09
2023-03-30T19:05:52.191Z,98543.28
2023-03-30T19:08:20.835Z,98547.22
2023-03-30T19:10:50.257Z,98543.09
2023-03-30T19:13:20.201Z,98552.59
2023-03-30T19:15:48.725Z,98544.22
2023-03-30T19:18:17.686Z,98545.03
2023-03-30T19:20:47.308Z,98544.81
2023-03-30T19:23:14.957Z,98543.19
2023-03-30T19:25:42.441Z,98542.38
2023-03-30T19:28:09.505Z,98536.22
2023-03-30T19:30:39.196Z,98542.00
2023-03-30T19:33:08.734Z,98532.59
2023-03-30T19:35:35.860Z,98534.06
2023-03-30T19:38:02.789Z,98529.19
2023-03-30T19:40:29.847Z,98525.69
2023-03-30T19:42:56.641Z,98522.81
2023-03-30T19:45:24.021Z,98516.44
2023-03-30T19:47:51.818Z,98516.44
2023-03-30T19:50:20.023Z,98513.75
2023-03-30T19:52:54.951Z,98504.69
2023-03-30T19:55:21.801Z,98511.09
2023-03-30T19:57:53.024Z,98507.38
2023-03-30T20:00:20.771Z,98527.34
2023-03-30T20:02:49.488Z,98511.53
2023-03-30T20:05:19.594Z,98496.78
2023-03-30T20:07:47.436Z,98494.94
2023-03-30T20:10:19.737Z,98499.69
2023-03-30T20:12:46.959Z,98487.38
2023-03-30T20:15:14.533Z,98493.94
2023-03-30T20:17:43.996Z,98484.69
2023-03-30T20:20:12.802Z,98489.81
2023-03-30T20:22:41.382Z,98484.69
2023-03-30T20:25:09.613Z,98483.03
2023-03-30T20:27:36.767Z,98493.94
2023-03-30T20:30:04.868Z,98480.59
2023-03-30T20:32:34.284Z,98486.31
2023-03-30T20:35:07.656Z,98484.03
2023-03-30T20:37:35.822Z,98479.84
2023-03-30T20:40:05.248Z,98479.41
2023-03-30T20:42:32.644Z,98490.22
2023-03-30T20:45:01.173Z,98482.44
2023-03-30T20:47:30.639Z,98477.56
2023-03-30T20:49:58.754Z,98476.16
2023-03-30T20:52:26.636Z,98469.19
2023-03-30T20:54:53.550Z,98464.06
2023-03-30T20:57:21.458Z,98458.50
2023-03-30T20:59:48.872Z,98462.34
2023-03-30T21:02:16.697Z,98462.94
2023-03-30T21:04:44.436Z,98461.88
2023-03-30T21:07:12.463Z,98462.69
2023-03-30T21:09:39.890Z,98452.63
2023-03-30T21:12:07.642Z,98450.53
2023-03-30T21:14:35.053Z,98445.78
2023-03-30T21:17:02.094Z,98450.88
2023-03-30T21:19:29.098Z,98442.41
2023-03-30T21:21:56.401Z,98445.47
2023-03-30T21:24:23.358Z,98446.06
2023-03-30T21:26:50.153Z,98448.75
2023-03-30T21:29:17.214Z,98451.03
2023-03-30T21:31:44.530Z,98441.00
2023-03-30T21:34:11.925Z,98443.91
2023-03-30T21:36:39.405Z,98441.25
2023-03-30T21:39:06.349Z,98439.38
2023-03-30T21:41:33.376Z,98441.84
2023-03-30T21:44:00.115Z,98441.84
2023-03-30T21:46:27.189Z,98438.94
2023-03-30T21:48:54.759Z,98437.88
2023-03-30T21:51:25.863Z,98435.84
2023-03-30T21:53:53.470Z,98445.25
2023-03-30T21:56:22.495Z,98436.78
2023-03-30T21:58:49.648Z,98443.53
2023-03-30T22:01:17.059Z,98433.66
2023-03-30T22:03:45.876Z,98437.94
2023-03-30T22:06:13.571Z,98431.22
2023-03-30T22:08:40.549Z,98433.28
2023-03-30T22:11:27.714Z,98438.41
2023-03-30T22:13:55.578Z,98435.50
2023-03-30T22:16:24.227Z,98428.53
2023-03-30T22:18:51.552Z,98431.22
2023-03-30T22:21:20.125Z,98427.13
2023-03-30T22:23:47.218Z,98426.31
2023-03-30T22:26:14.481Z,98425.75
2023-03-30T22:28:41.984Z,98420.41
2023-03-30T22:31:09.604Z,98424.69
2023-03-30T22:33:36.750Z,98415.28
2023-03-30T22:36:05.514Z,98420.81
2023-03-30T22:38:32.832Z,98421.88
2023-03-30T22:41:04.582Z,98424.75
2023-03-30T22:43:33.451Z,98423.94
2023-03-30T22:46:00.577Z,98422.09
2023-03-30T22:48:27.444Z,98420.69
2023-03-30T22:50:54.636Z,98425.69
2023-03-30T22:53:21.421Z,98428.22
2023-03-30T22:55:48.221Z,98412.28
2023-03-30T22:58:15.970Z,98416.69
2023-03-30T23:00:42.778Z,98416.28
2023-03-30T23:03:09.840Z,98414.06
2023-03-30T23:05:37.279Z,98408.97
2023-03-30T23:08:04.189Z,98411.03
2023-03-30T23:10:34.008Z,98417.19
2023-03-30T23:13:00.967Z,98412.91
2023-03-30T23:15:29.323Z,98409.41
2023-03-30T23:17:56.195Z,98417.41
2023-03-30T23:20:23.141Z,98414.75
2023-03-30T23:22:50.890Z,98418.69
2023-03-30T23:25:17.874Z,98405.56
2023-03-30T23:27:44.679Z,98399.66
2023-03-30T23:30:11.867Z,98403.56
2023-03-30T23:32:38.687Z,98400.69
2023-03-30T23:35:05.701Z,98399.88
2023-03-30T23:37:32.688Z,98394.75
2023-03-30T23:40:01.841Z,98395.88
2023-03-30T23:42:29.616Z,98390.25
2023-03-30T23:44:56.455Z,98397.53
2023-03-30T23:47:23.310Z,98389.81
2023-03-30T23:49:50.029Z,98385.16
2023-03-30T23:52:16.809Z,98387.44
2023-03-30T23:54:43.744Z,98385.00
2023-03-30T23:57:10.693Z,98384.63
2023-03-30T23:59:37.579Z,98387.72
